createdAt,value
2017-09-28T00:00:16.142Z,57.60
2017-09-28T00:01:16.166Z,58.10
2017-09-28T00:02:16.110Z,58.60
2017-09-28T00:03:16.204Z,58.60
2017-09-28T00:04:16.078Z,58.20
2017-09-28T00:05:16.101Z,58.20
2017-09-28T00:06:16.025Z,58.80
2017-09-28T00:07:16.109Z,58.30
2017-09-28T00:08:15.980Z,58.70
2017-09-28T00:09:16.022Z,58.60
2017-09-28T00:10:15.959Z,57.00
2017-09-28T00:11:16.038Z,57.40
2017-09-28T00:12:15.903Z,57.90
2017-09-28T00:13:15.948Z,58.70
2017-09-28T00:14:15.865Z,59.00
2017-09-28T00:15:15.962Z,57.70
2017-09-28T00:16:15.820Z,58.60
2017-09-28T00:17:15.886Z,58.40
2017-09-28T00:18:15.785Z,58.10
2017-09-28T00:19:15.895Z,58.70
2017-09-28T00:20:15.752Z,58.10
2017-09-28T00:21:15.803Z,58.60
2017-09-28T00:22:15.714Z,57.80
2017-09-28T00:23:15.727Z,57.80
2017-09-28T00:24:15.678Z,57.50
2017-09-28T00:25:15.732Z,56.60
2017-09-28T00:26:15.630Z,57.10
2017-09-28T00:27:15.615Z,57.70
2017-09-28T00:28:15.655Z,56.70
2017-09-28T00:29:15.565Z,56.90
2017-09-28T00:30:15.672Z,57.30
2017-09-28T00:31:15.525Z,59.30
2017-09-28T00:32:15.577Z,58.90
2017-09-28T00:33:15.535Z,57.70
2017-09-28T00:34:15.606Z,58.70
2017-09-28T00:35:15.477Z,58.00
2017-09-28T00:36:15.553Z,59.20
2017-09-28T00:37:15.436Z,58.20
2017-09-28T00:38:15.511Z,59.00
2017-09-28T00:39:15.385Z,58.40
2017-09-28T00:40:15.436Z,59.50
2017-09-28T00:41:15.337Z,57.30
2017-09-28T00:42:15.445Z,57.80
2017-09-28T00:43:15.300Z,57.90
2017-09-28T00:44:15.373Z,57.00
2017-09-28T00:45:15.258Z,57.80
2017-09-28T00:46:15.270Z,59.40
2017-09-28T00:47:15.228Z,59.10
2017-09-28T00:48:15.283Z,57.90
2017-09-28T00:49:15.172Z,59.50
2017-09-28T00:50:15.205Z,58.10
2017-09-28T00:51:15.142Z,59.20
2017-09-28T00:52:15.215Z,60.20
2017-09-28T00:53:15.108Z,59.10
2017-09-28T00:54:15.137Z,59.40
2017-09-28T00:55:15.076Z,59.50
2017-09-28T00:56:15.141Z,60.20
2017-09-28T00:57:15.040Z,60.60
2017-09-28T00:58:15.048Z,61.10
2017-09-28T00:59:14.975Z,58.40
2017-09-28T01:00:15.060Z,60.50
2017-09-28T01:01:14.940Z,59.20
2017-09-28T01:02:14.979Z,60.90
2017-09-28T01:03:14.893Z,59.10
2017-09-28T01:04:14.996Z,59.50
2017-09-28T01:05:14.857Z,60.80
2017-09-28T01:06:14.906Z,59.90
2017-09-28T01:07:14.834Z,59.80
2017-09-28T01:08:14.926Z,59.20
2017-09-28T01:09:14.784Z,62.10
2017-09-28T01:10:14.837Z,60.40
2017-09-28T01:11:14.755Z,59.10
2017-09-28T01:12:14.842Z,59.00
2017-09-28T01:13:14.701Z,60.20
2017-09-28T01:14:14.762Z,60.00
2017-09-28T01:15:14.668Z,60.70
2017-09-28T01:16:14.665Z,60.30
2017-09-28T01:17:14.628Z,58.50
2017-09-28T01:18:14.686Z,60.70
2017-09-28T01:19:14.585Z,60.80
2017-09-28T01:20:14.593Z,58.80
2017-09-28T01:21:14.545Z,59.80
2017-09-28T01:22:14.620Z,60.10
2017-09-28T01:23:14.512Z,60.30
2017-09-28T01:24:14.512Z,60.30
2017-09-28T01:25:14.449Z,60.50
2017-09-28T01:26:14.537Z,59.40
2017-09-28T01:27:14.428Z,59.80
2017-09-28T01:28:14.453Z,60.50
2017-09-28T01:29:14.400Z,60.00
2017-09-28T01:30:14.476Z,59.60
2017-09-28T01:31:14.351Z,59.90
2017-09-28T01:32:14.376Z,59.80
2017-09-28T01:33:14.298Z,58.10
2017-09-28T01:34:14.385Z,58.90
2017-09-28T01:35:14.263Z,59.30
2017-09-28T01:36:14.306Z,59.50
2017-09-28T01:37:14.227Z,60.20
2017-09-28T01:38:14.331Z,59.90
2017-09-28T01:39:14.191Z,59.90
2017-09-28T01:40:14.234Z,59.70
2017-09-28T01:41:14.147Z,59.40
2017-09-28T01:42:14.246Z,60.70
2017-09-28T01:43:14.111Z,60.80
2017-09-28T01:44:14.156Z,60.20
2017-09-28T01:45:14.086Z,59.50
2017-09-28T01:46:14.074Z,58.90
2017-09-28T01:47:14.014Z,58.60
2017-09-28T01:48:14.628Z,59.60
2017-09-28T01:49:13.980Z,60.30
2017-09-28T01:50:14.008Z,60.90
2017-09-28T01:51:13.951Z,59.10
2017-09-28T01:52:14.018Z,59.40
2017-09-28T01:53:13.902Z,60.00
2017-09-28T01:54:13.918Z,58.80
2017-09-28T01:55:13.876Z,60.30
2017-09-28T01:56:13.945Z,60.10
2017-09-28T01:57:13.828Z,61.20
2017-09-28T01:58:13.855Z,62.20
2017-09-28T01:59:13.786Z,60.50
2017-09-28T02:00:13.873Z,59.40
2017-09-28T02:01:13.752Z,59.90
2017-09-28T02:02:13.779Z,62.80
2017-09-28T02:03:13.712Z,62.50
2017-09-28T02:04:13.803Z,61.70
2017-09-28T02:05:13.660Z,60.70
2017-09-28T02:06:13.707Z,60.90
2017-09-28T02:07:13.617Z,62.40
2017-09-28T02:08:13.717Z,60.40
2017-09-28T02:09:13.587Z,60.90
2017-09-28T02:10:13.632Z,60.30
2017-09-28T02:11:13.536Z,61.50
2017-09-28T02:12:13.648Z,60.20
2017-09-28T02:13:13.517Z,60.40
2017-09-28T02:15:13.475Z,60.60
2017-09-28T02:16:13.483Z,61.20
2017-09-28T02:17:13.439Z,59.70
2017-09-28T02:18:13.485Z,61.60
2017-09-28T02:19:13.401Z,59.90
2017-09-28T02:20:13.507Z,62.20
2017-09-28T02:21:13.365Z,60.70
2017-09-28T02:22:13.412Z,59.10
2017-09-28T02:23:13.314Z,59.70
2017-09-28T02:24:13.421Z,62.80
2017-09-28T02:25:13.286Z,61.40
2017-09-28T02:26:13.336Z,60.20
2017-09-28T02:27:13.240Z,60.30
2017-09-28T02:28:13.356Z,61.50
2017-09-28T02:29:13.217Z,62.20
2017-09-28T02:30:13.267Z,59.70
2017-09-28T02:31:13.167Z,58.70
2017-09-28T02:32:13.282Z,61.20
2017-09-28T02:33:13.140Z,59.40
2017-09-28T02:34:13.192Z,59.20
2017-09-28T02:35:13.097Z,59.40
2017-09-28T02:36:13.102Z,60.90
2017-09-28T02:37:13.065Z,59.80
2017-09-28T02:38:13.115Z,59.30
2017-09-28T02:39:13.015Z,58.80
2017-09-28T02:40:13.141Z,59.40
2017-09-28T02:41:12.993Z,59.90
2017-09-28T02:42:13.258Z,60.50
2017-09-28T02:43:12.950Z,60.50
2017-09-28T02:44:13.267Z,59.60
2017-09-28T02:45:12.940Z,59.30
2017-09-28T02:46:13.491Z,60.60
2017-09-28T02:47:12.884Z,58.80
2017-09-28T02:48:13.496Z,61.90
2017-09-28T02:49:12.853Z,58.40
2017-09-28T02:50:13.617Z,59.90
2017-09-28T02:51:12.806Z,61.10
2017-09-28T02:52:12.811Z,60.40
2017-09-28T02:53:12.766Z,61.10
2017-09-28T02:54:12.832Z,59.70
2017-09-28T02:55:12.729Z,59.90
2017-09-28T02:56:12.735Z,59.20
2017-09-28T02:57:12.689Z,60.40
2017-09-28T02:58:12.762Z,59.50
2017-09-28T02:59:12.657Z,59.90
2017-09-28T03:00:12.660Z,60.30
2017-09-28T03:01:12.605Z,59.40
2017-09-28T03:02:12.707Z,60.50
2017-09-28T03:03:12.581Z,60.20
2017-09-28T03:04:12.585Z,59.00
2017-09-28T03:05:12.535Z,60.10
2017-09-28T03:06:12.610Z,59.10
2017-09-28T03:07:12.493Z,59.30
2017-09-28T03:08:12.521Z,60.00
2017-09-28T03:09:12.442Z,60.80
2017-09-28T03:10:12.533Z,61.40
2017-09-28T03:11:12.415Z,60.60
2017-09-28T03:12:12.442Z,60.10
2017-09-28T03:13:12.379Z,61.30
2017-09-28T03:14:12.458Z,60.40
2017-09-28T03:15:12.349Z,58.70
2017-09-28T03:17:12.293Z,61.00
2017-09-28T03:18:12.379Z,59.60
2017-09-28T03:19:12.279Z,60.60
2017-09-28T03:20:12.292Z,60.40
2017-09-28T03:21:12.221Z,58.80
2017-09-28T03:22:12.313Z,59.20
2017-09-28T03:23:12.194Z,59.90
2017-09-28T03:24:12.220Z,59.20
2017-09-28T03:25:12.152Z,59.50
2017-09-28T03:26:12.229Z,59.40
2017-09-28T03:27:12.110Z,59.20
2017-09-28T03:28:12.097Z,59.30
2017-09-28T03:29:12.153Z,59.30
2017-09-28T03:30:12.061Z,61.20
2017-09-28T03:31:12.083Z,60.90
2017-09-28T03:32:12.013Z,60.90
2017-09-28T03:33:12.082Z,60.40
2017-09-28T03:34:12.002Z,60.00
2017-09-28T03:35:11.991Z,61.10
2017-09-28T03:36:11.943Z,60.30
2017-09-28T03:37:12.016Z,60.30
2017-09-28T03:38:11.903Z,60.00
2017-09-28T03:39:11.920Z,61.10
2017-09-28T03:40:11.891Z,59.70
2017-09-28T03:41:11.950Z,60.80
2017-09-28T03:42:11.828Z,60.80
2017-09-28T03:43:11.953Z,60.10
2017-09-28T03:44:11.800Z,62.60
2017-09-28T03:45:11.875Z,59.50
2017-09-28T03:46:11.758Z,61.80
2017-09-28T03:47:11.772Z,60.10
2017-09-28T03:48:11.749Z,60.40
2017-09-28T03:49:11.802Z,61.40
2017-09-28T03:50:11.685Z,60.70
2017-09-28T03:51:11.700Z,61.00
2017-09-28T03:52:11.654Z,60.80
2017-09-28T03:53:11.723Z,60.90
2017-09-28T03:54:11.604Z,62.30
2017-09-28T03:55:11.639Z,61.90
2017-09-28T03:56:11.576Z,61.30
2017-09-28T03:57:11.637Z,62.10
2017-09-28T03:58:11.532Z,61.70
2017-09-28T03:59:11.555Z,61.50
2017-09-28T04:00:11.503Z,60.00
2017-09-28T04:01:11.578Z,61.00
2017-09-28T04:02:11.461Z,60.90
2017-09-28T04:03:11.487Z,61.70
2017-09-28T04:04:11.412Z,62.10
2017-09-28T04:05:11.495Z,61.10
2017-09-28T04:06:11.386Z,62.90
2017-09-28T04:07:11.414Z,62.40
2017-09-28T04:08:11.339Z,61.40
2017-09-28T04:09:11.419Z,61.40
2017-09-28T04:10:11.309Z,62.00
2017-09-28T04:11:11.339Z,60.10
2017-09-28T04:12:11.267Z,61.70
2017-09-28T04:13:11.344Z,61.00
2017-09-28T04:14:11.223Z,61.50
2017-09-28T04:15:11.272Z,63.80
2017-09-28T04:16:11.174Z,63.20
2017-09-28T04:17:11.287Z,62.60
2017-09-28T04:18:11.163Z,63.20
2017-09-28T04:19:11.178Z,61.50
2017-09-28T04:20:11.114Z,61.90
2017-09-28T04:21:11.195Z,61.30
2017-09-28T04:22:11.068Z,61.60
2017-09-28T04:23:11.122Z,61.20
2017-09-28T04:24:11.030Z,61.30
2017-09-28T04:25:11.132Z,61.30
2017-09-28T04:26:10.993Z,63.30
2017-09-28T04:27:11.040Z,60.40
2017-09-28T04:28:10.979Z,62.00
2017-09-28T04:29:11.074Z,62.00
2017-09-28T04:30:10.945Z,62.20
2017-09-28T04:31:10.983Z,62.50
2017-09-28T04:32:10.886Z,61.20
2017-09-28T04:33:10.877Z,61.20
2017-09-28T04:34:11.016Z,60.50
2017-09-28T04:35:10.850Z,62.30
2017-09-28T04:36:10.907Z,61.20
2017-09-28T04:37:10.781Z,61.10
2017-09-28T04:38:10.832Z,59.60
2017-09-28T04:39:10.763Z,62.50
2017-09-28T04:40:10.835Z,61.40
2017-09-28T04:41:10.737Z,61.20
2017-09-28T04:42:10.748Z,61.10
2017-09-28T04:43:10.684Z,60.90
2017-09-28T04:44:10.761Z,60.70
2017-09-28T04:45:10.651Z,60.00
2017-09-28T04:46:10.673Z,61.10
2017-09-28T04:47:10.598Z,60.90
2017-09-28T04:48:10.674Z,61.80
2017-09-28T04:49:10.564Z,61.00
2017-09-28T04:50:10.606Z,61.90
2017-09-28T04:51:10.521Z,60.80
2017-09-28T04:52:10.607Z,61.20
2017-09-28T04:53:10.490Z,62.50
2017-09-28T04:54:10.526Z,61.80
2017-09-28T04:55:10.464Z,61.80
2017-09-28T04:56:10.543Z,62.00
2017-09-28T04:57:10.412Z,61.80
2017-09-28T04:58:10.411Z,62.50
2017-09-28T04:59:10.462Z,63.50
2017-09-28T05:00:10.361Z,62.00
2017-09-28T05:01:10.387Z,62.20
2017-09-28T05:02:10.359Z,62.60
2017-09-28T05:03:10.390Z,63.80
2017-09-28T05:04:10.286Z,60.20
2017-09-28T05:05:10.397Z,62.90
2017-09-28T05:06:10.257Z,62.70
2017-09-28T05:07:10.303Z,62.20
2017-09-28T05:08:10.216Z,61.60
2017-09-28T05:09:10.325Z,64.40
2017-09-28T05:10:10.182Z,61.90
2017-09-28T05:11:10.245Z,62.20
2017-09-28T05:12:10.123Z,61.40
2017-09-28T05:13:10.150Z,63.80
2017-09-28T05:14:10.101Z,62.30
2017-09-28T05:15:10.159Z,61.80
2017-09-28T05:16:10.050Z,64.30
2017-09-28T05:17:10.061Z,63.30
2017-09-28T05:18:10.021Z,63.40
2017-09-28T05:19:10.096Z,63.70
2017-09-28T05:20:09.970Z,63.20
2017-09-28T05:21:10.020Z,64.00
2017-09-28T05:22:09.942Z,63.30
2017-09-28T05:23:10.008Z,62.50
2017-09-28T05:24:09.904Z,63.90
2017-09-28T05:25:09.929Z,64.30
2017-09-28T05:26:09.856Z,63.50
2017-09-28T05:27:09.944Z,65.00
2017-09-28T05:28:09.822Z,64.80
2017-09-28T05:29:09.849Z,63.90
2017-09-28T05:30:09.783Z,61.90
2017-09-28T05:31:09.862Z,63.70
2017-09-28T05:32:09.767Z,62.00
2017-09-28T05:33:09.734Z,66.00
2017-09-28T05:34:09.798Z,65.30
2017-09-28T05:35:09.694Z,64.90
2017-09-28T05:36:09.698Z,62.50
2017-09-28T05:37:09.648Z,63.60
2017-09-28T05:38:09.672Z,64.10
2017-09-28T05:39:09.616Z,64.60
2017-09-28T05:40:09.619Z,63.90
2017-09-28T05:41:09.561Z,66.10
2017-09-28T05:42:09.640Z,64.90
2017-09-28T05:43:09.536Z,65.10
2017-09-28T05:44:09.558Z,64.90
2017-09-28T05:45:09.500Z,66.50
2017-09-28T05:46:09.565Z,63.90
2017-09-28T05:47:09.450Z,64.70
2017-09-28T05:48:09.475Z,66.40
2017-09-28T05:49:09.403Z,66.30
2017-09-28T05:50:09.491Z,66.40
2017-09-28T05:51:09.396Z,64.70
2017-09-28T05:52:09.413Z,65.90
2017-09-28T05:53:09.339Z,63.40
2017-09-28T05:54:09.424Z,65.10
2017-09-28T05:55:09.299Z,65.70
2017-09-28T05:56:09.332Z,63.90
2017-09-28T05:57:09.279Z,65.60
2017-09-28T05:58:09.341Z,65.00
2017-09-28T05:59:09.232Z,65.80
2017-09-28T06:00:09.251Z,66.40
2017-09-28T06:01:09.190Z,63.70
2017-09-28T06:02:09.267Z,63.50
2017-09-28T06:03:09.163Z,63.80
2017-09-28T06:04:09.179Z,63.60
2017-09-28T06:05:09.111Z,63.80
2017-09-28T06:06:09.207Z,64.80
2017-09-28T06:07:09.073Z,63.00
2017-09-28T06:08:09.054Z,62.90
2017-09-28T06:09:09.021Z,63.40
2017-09-28T06:10:09.116Z,64.70
2017-09-28T06:11:08.986Z,65.20
2017-09-28T06:12:09.038Z,67.70
2017-09-28T06:13:08.955Z,65.70
2017-09-28T06:14:09.055Z,65.20
2017-09-28T06:15:08.920Z,64.80
2017-09-28T06:16:08.960Z,66.30
2017-09-28T06:17:08.879Z,66.00
2017-09-28T06:18:08.977Z,65.40
2017-09-28T06:19:08.834Z,64.80
2017-09-28T06:20:08.897Z,67.30
2017-09-28T06:21:08.794Z,66.90
2017-09-28T06:22:08.907Z,67.30
2017-09-28T06:23:08.757Z,68.30
2017-09-28T06:24:08.826Z,66.20
2017-09-28T06:25:08.734Z,67.50
2017-09-28T06:26:08.825Z,66.00
2017-09-28T06:27:08.697Z,65.60
2017-09-28T06:28:08.690Z,66.80
2017-09-28T06:29:08.751Z,67.10
2017-09-28T06:30:08.643Z,66.40
2017-09-28T06:31:08.671Z,67.40
2017-09-28T06:32:08.585Z,64.40
2017-09-28T06:33:08.674Z,66.50
2017-09-28T06:34:08.567Z,64.90
2017-09-28T06:35:08.593Z,67.10
2017-09-28T06:36:08.509Z,65.30
2017-09-28T06:37:08.597Z,67.60
2017-09-28T06:38:08.492Z,66.80
2017-09-28T06:39:08.508Z,67.30
2017-09-28T06:40:08.429Z,65.30
2017-09-28T06:41:08.444Z,68.00
2017-09-28T06:42:08.408Z,67.20
2017-09-28T06:43:08.447Z,66.00
2017-09-28T06:44:08.377Z,67.00
2017-09-28T06:45:08.449Z,67.60
2017-09-28T06:46:08.334Z,69.10
2017-09-28T06:47:08.363Z,69.60
2017-09-28T06:48:08.293Z,70.90
2017-09-28T06:49:08.392Z,69.90
2017-09-28T06:50:08.274Z,68.60
2017-09-28T06:51:08.290Z,68.10
2017-09-28T06:52:08.229Z,69.60
2017-09-28T06:53:08.309Z,68.00
2017-09-28T06:54:08.196Z,65.80
2017-09-28T06:55:08.331Z,67.00
2017-09-28T06:56:08.172Z,64.80
2017-09-28T06:57:08.248Z,67.70
2017-09-28T06:58:08.154Z,67.10
2017-09-28T06:59:08.152Z,67.10
2017-09-28T07:00:08.092Z,67.70
2017-09-28T07:01:08.196Z,69.50
2017-09-28T07:02:08.072Z,71.10
2017-09-28T07:03:08.175Z,70.40
2017-09-28T07:04:08.040Z,68.70
2017-09-28T07:05:08.191Z,68.40
2017-09-28T07:06:07.998Z,70.50
2017-09-28T07:07:08.112Z,69.00
2017-09-28T07:08:08.708Z,73.10
2017-09-28T07:09:08.015Z,70.80
2017-09-28T07:10:07.904Z,68.40
2017-09-28T07:11:08.024Z,69.00
2017-09-28T07:12:07.904Z,70.60
2017-09-28T07:13:07.941Z,73.20
2017-09-28T07:14:07.855Z,72.80
2017-09-28T07:15:07.959Z,73.10
2017-09-28T07:16:07.814Z,72.00
2017-09-28T07:17:07.862Z,72.30
2017-09-28T07:18:07.769Z,71.00
2017-09-28T07:19:07.877Z,74.10
2017-09-28T07:20:07.733Z,71.00
2017-09-28T07:21:07.794Z,70.00
2017-09-28T07:22:07.696Z,71.40
2017-09-28T07:23:07.817Z,70.70
2017-09-28T07:24:07.674Z,72.20
2017-09-28T07:25:07.639Z,70.90
2017-09-28T07:26:07.628Z,70.50
2017-09-28T07:27:07.632Z,68.20
2017-09-28T07:28:07.607Z,71.30
2017-09-28T07:29:07.585Z,70.40
2017-09-28T07:30:07.548Z,71.10
2017-09-28T07:31:07.663Z,73.50
2017-09-28T07:32:07.514Z,72.60
2017-09-28T07:33:07.567Z,71.20
2017-09-28T07:34:07.467Z,72.40
2017-09-28T07:35:07.483Z,73.20
2017-09-28T07:36:07.443Z,73.60
2017-09-28T07:37:07.491Z,71.90
2017-09-28T07:38:07.399Z,74.80
2017-09-28T07:39:07.511Z,72.50
2017-09-28T07:40:07.365Z,72.90
2017-09-28T07:41:07.419Z,74.10
2017-09-28T07:42:07.325Z,72.90
2017-09-28T07:43:07.444Z,72.90
2017-09-28T07:44:07.296Z,71.80
2017-09-28T07:45:07.275Z,70.70
2017-09-28T07:46:07.268Z,73.50
2017-09-28T07:47:07.231Z,73.50
2017-09-28T07:48:07.268Z,74.90
2017-09-28T07:49:07.188Z,77.90
2017-09-28T07:50:07.284Z,72.50
2017-09-28T07:51:07.159Z,75.50
2017-09-28T07:52:07.195Z,81.60
2017-09-28T07:53:07.131Z,72.60
2017-09-28T07:54:07.207Z,74.60
2017-09-28T13:43:23.220Z,51.30
2017-09-28T13:44:23.207Z,51.20
2017-09-28T13:45:23.191Z,50.90
2017-09-28T13:46:23.174Z,51.50
2017-09-28T13:47:23.160Z,50.40
2017-09-28T13:48:23.143Z,49.50
2017-09-28T13:49:23.131Z,48.80
2017-09-28T13:50:23.123Z,49.90
2017-09-28T13:51:23.107Z,49.40
2017-09-28T13:52:23.100Z,48.10
2017-09-28T13:53:23.083Z,47.70
2017-09-28T13:54:23.071Z,48.60
2017-09-28T13:55:23.156Z,48.00
2017-09-28T13:57:23.036Z,48.60
2017-09-28T13:58:23.021Z,48.30
2017-09-28T13:59:23.008Z,48.80
2017-09-28T14:00:23.002Z,48.50
2017-09-28T14:01:22.992Z,45.80
2017-09-28T14:02:22.976Z,45.80
2017-09-28T14:03:22.955Z,46.20
2017-09-28T14:05:56.757Z,47.30
2017-09-28T14:06:54.722Z,46.40
2017-09-28T14:07:54.763Z,46.20
2017-09-28T14:08:54.685Z,47.20
2017-09-28T14:09:54.777Z,47.60
2017-09-28T14:10:54.672Z,47.90
2017-09-28T14:11:54.692Z,46.60
2017-09-28T14:12:54.662Z,47.10
2017-09-28T14:13:54.710Z,47.10
2017-09-28T14:14:54.626Z,46.00
2017-09-28T14:15:54.721Z,46.90
2017-09-28T14:16:54.594Z,47.40
2017-09-28T14:17:54.684Z,47.00
2017-09-28T14:18:54.571Z,47.20
2017-09-28T14:19:54.650Z,47.20
2017-09-28T14:20:54.561Z,46.50
2017-09-28T14:21:54.661Z,47.00
2017-09-28T14:22:54.526Z,46.40
2017-09-28T14:23:54.680Z,46.30
2017-09-28T14:24:54.518Z,45.60
2017-09-28T14:25:54.686Z,46.70
2017-09-28T14:26:54.486Z,46.60
2017-09-28T14:27:54.602Z,46.50
2017-09-28T14:28:54.478Z,46.00
2017-09-28T14:29:54.555Z,46.50
2017-09-28T14:30:54.450Z,46.40
2017-09-28T14:31:55.038Z,46.40
2017-09-28T14:32:54.451Z,45.80
2017-09-28T14:33:54.540Z,45.90
2017-09-28T14:34:54.453Z,45.50
2017-09-28T14:35:54.450Z,46.40
2017-09-28T14:36:54.405Z,46.40
2017-09-28T14:37:54.471Z,45.30
2017-09-28T14:38:54.381Z,45.80
2017-09-28T14:39:54.478Z,45.60
2017-09-28T14:40:54.354Z,46.50
2017-09-28T14:41:54.395Z,46.90
2017-09-28T14:42:54.331Z,45.60
2017-09-28T14:43:54.419Z,46.50
2017-09-28T14:44:54.325Z,45.60
2017-09-28T14:45:54.430Z,46.40
2017-09-28T14:46:54.292Z,46.80
2017-09-28T14:47:54.335Z,46.70
2017-09-28T14:48:54.270Z,46.90
2017-09-28T14:49:54.364Z,45.90
2017-09-28T14:50:54.253Z,46.20
2017-09-28T14:51:54.378Z,46.30
2017-09-28T14:52:54.237Z,46.10
2017-09-28T14:53:54.275Z,45.60
2017-09-28T14:54:54.214Z,46.40
2017-09-28T14:55:54.288Z,45.70
2017-09-28T14:56:54.197Z,45.30
2017-09-28T14:57:54.318Z,45.70
2017-09-28T14:58:54.171Z,45.30
2017-09-28T14:59:54.227Z,46.20
2017-09-28T15:00:54.163Z,46.50
2017-09-28T15:01:54.236Z,45.70
2017-09-28T15:02:54.125Z,46.30
2017-09-28T15:03:54.158Z,46.40
2017-09-28T15:04:54.102Z,45.30
2017-09-28T15:05:54.163Z,45.80
2017-09-28T15:06:54.081Z,45.70
2017-09-28T15:07:54.180Z,46.00
2017-09-28T15:08:54.059Z,45.50
2017-09-28T15:09:54.085Z,45.70
2017-09-28T15:10:54.051Z,45.80
2017-09-28T15:11:54.099Z,45.90
2017-09-28T15:12:54.023Z,45.70
2017-09-28T15:13:54.123Z,45.20
2017-09-28T15:14:54.006Z,45.00
2017-09-28T15:15:54.041Z,45.90
2017-09-28T15:16:54.017Z,46.40
2017-09-28T15:17:54.047Z,46.40
2017-09-28T15:18:53.963Z,46.80
2017-09-28T15:19:54.055Z,46.80
2017-09-28T15:20:53.952Z,46.60
2017-09-28T15:21:53.960Z,47.70
2017-09-28T15:22:53.936Z,46.70
2017-09-28T15:23:53.991Z,46.80
2017-09-28T15:24:53.921Z,47.30
2017-09-28T15:25:54.001Z,46.80
2017-09-28T15:26:53.903Z,46.90
2017-09-28T15:27:53.939Z,47.00
2017-09-28T15:28:53.870Z,47.30
2017-09-28T15:29:53.934Z,47.40
2017-09-28T15:30:53.871Z,46.10
2017-09-28T15:31:53.934Z,46.30
2017-09-28T15:32:53.821Z,45.60
2017-09-28T15:33:53.850Z,46.60
2017-09-28T15:34:53.812Z,46.20
2017-09-28T15:35:53.875Z,47.00
2017-09-28T15:36:53.780Z,47.70
2017-09-28T15:37:53.883Z,47.00
2017-09-28T15:38:53.758Z,47.60
2017-09-28T15:39:53.789Z,47.90
2017-09-28T15:40:53.734Z,47.60
2017-09-28T15:41:53.812Z,48.50
2017-09-28T15:42:53.717Z,48.70
2017-09-28T15:43:53.820Z,48.80
2017-09-28T15:44:53.697Z,50.30
2017-09-28T15:45:53.737Z,49.80
2017-09-28T15:46:53.665Z,49.70
2017-09-28T15:47:53.744Z,49.20
2017-09-28T15:48:53.643Z,49.80
2017-09-28T15:49:53.771Z,48.90
2017-09-28T15:50:53.644Z,50.00
2017-09-28T15:51:53.685Z,50.60
2017-09-28T15:52:53.604Z,50.00
2017-09-28T15:53:53.697Z,50.60
2017-09-28T15:54:53.575Z,50.50
2017-09-28T15:55:53.609Z,52.30
2017-09-28T15:56:53.558Z,51.00
2017-09-28T15:57:53.732Z,50.90
2017-09-28T15:58:53.535Z,52.20
2017-09-28T15:59:53.739Z,51.30
2017-09-28T16:00:53.514Z,52.20
2017-09-28T16:01:53.653Z,51.90
2017-09-28T16:02:53.507Z,51.30
2017-09-28T16:03:53.676Z,52.60
2017-09-28T16:04:53.474Z,52.20
2017-09-28T16:05:53.680Z,52.90
2017-09-28T16:06:53.471Z,51.50
2017-09-28T16:07:53.612Z,52.10
2017-09-28T16:08:53.444Z,50.90
2017-09-28T16:09:53.609Z,51.40
2017-09-28T16:10:53.409Z,51.80
2017-09-28T16:11:53.641Z,51.80
2017-09-28T16:12:53.387Z,51.60
2017-09-28T16:13:53.524Z,51.70
2017-09-28T16:14:53.391Z,51.00
2017-09-28T16:15:53.524Z,52.90
2017-09-28T16:16:53.345Z,52.00
2017-09-28T16:17:53.754Z,51.90
2017-09-28T16:18:53.333Z,52.60
2017-09-28T16:19:53.338Z,52.30
2017-09-28T16:20:53.686Z,53.60
2017-09-28T16:21:53.300Z,54.10
2017-09-28T16:22:53.501Z,54.10
2017-09-28T16:23:53.294Z,54.50
2017-09-28T16:24:53.505Z,55.50
2017-09-28T16:25:53.281Z,55.10
2017-09-28T16:26:53.397Z,55.70
2017-09-28T16:27:53.269Z,53.50
2017-09-28T16:28:53.417Z,54.20
2017-09-28T16:29:53.236Z,54.00
2017-09-28T16:30:53.429Z,54.70
2017-09-28T16:31:53.229Z,54.40
2017-09-28T16:32:53.342Z,55.30
2017-09-28T16:33:53.209Z,55.70
2017-09-28T16:34:53.361Z,54.10
2017-09-28T16:35:53.195Z,55.10
2017-09-28T16:36:53.357Z,54.00
2017-09-28T16:37:53.179Z,54.30
2017-09-28T16:38:53.367Z,53.40
2017-09-28T16:39:53.184Z,53.40
2017-09-28T16:40:53.296Z,53.60
2017-09-28T16:41:53.147Z,52.70
2017-09-28T16:42:53.341Z,54.00
2017-09-28T16:43:53.149Z,54.10
2017-09-28T16:44:53.346Z,54.40
2017-09-28T16:45:53.118Z,55.30
2017-09-28T16:46:53.255Z,54.80
2017-09-28T16:47:53.091Z,54.80
2017-09-28T16:48:53.225Z,55.10
2017-09-28T16:49:53.077Z,53.80
2017-09-28T16:50:53.238Z,52.50
2017-09-28T16:51:53.053Z,52.10
2017-09-28T16:52:53.171Z,53.50
2017-09-28T16:53:53.029Z,53.50
2017-09-28T16:54:53.170Z,53.20
2017-09-28T16:55:53.026Z,53.20
2017-09-28T16:56:53.187Z,55.40
2017-09-28T16:57:53.005Z,54.30
2017-09-28T16:58:53.107Z,55.10
2017-09-28T16:59:53.000Z,53.80
2017-09-28T17:00:53.108Z,53.50
2017-09-28T17:01:52.970Z,53.90
2017-09-28T17:02:53.123Z,54.80
2017-09-28T17:03:52.958Z,55.30
2017-09-28T17:04:53.018Z,55.30
2017-09-28T17:05:52.950Z,54.90
2017-09-28T17:06:53.045Z,54.70
2017-09-28T17:07:52.928Z,54.60
2017-09-28T17:08:53.060Z,55.60
2017-09-28T17:09:52.928Z,55.60
2017-09-28T17:10:53.053Z,54.60
2017-09-28T17:11:52.895Z,55.80
2017-09-28T17:12:52.977Z,55.00
2017-09-28T17:13:53.589Z,55.20
2017-09-28T17:14:52.991Z,55.50
2017-09-28T17:15:52.853Z,54.90
2017-09-28T17:16:53.014Z,55.80
2017-09-28T17:17:52.861Z,56.60
2017-09-28T17:18:52.902Z,55.60
2017-09-28T17:19:53.593Z,56.30
2017-09-28T17:20:52.914Z,56.20
2017-09-28T17:21:52.817Z,55.60
2017-09-28T17:22:52.928Z,56.60
2017-09-28T17:23:52.787Z,55.40
2017-09-28T17:24:52.838Z,56.40
2017-09-28T17:25:52.784Z,56.30
2017-09-28T17:26:52.859Z,55.10
2017-09-28T17:27:52.761Z,55.50
2017-09-28T17:28:52.895Z,56.70
2017-09-28T17:29:52.735Z,57.20
2017-09-28T17:30:52.881Z,57.10
2017-09-28T17:31:52.745Z,57.30
2017-09-28T17:32:52.795Z,57.90
2017-09-28T17:33:52.728Z,59.70
2017-09-28T17:34:52.805Z,59.50
2017-09-28T17:35:52.688Z,58.00
2017-09-28T17:36:52.675Z,56.30
2017-09-28T17:37:52.728Z,55.10
2017-09-28T17:38:52.825Z,53.80
2017-09-28T17:39:52.684Z,51.80
2017-09-28T17:40:52.648Z,51.00
2017-09-28T17:41:52.640Z,49.70
2017-09-28T17:42:52.625Z,49.20
2017-09-28T17:43:52.635Z,49.60
2017-09-28T17:44:52.623Z,49.10
2017-09-28T17:45:52.605Z,47.20
2017-09-28T17:46:52.595Z,47.50
2017-09-28T17:47:52.572Z,46.80
2017-09-28T17:48:52.583Z,46.00
2017-09-28T17:49:52.574Z,45.80
2017-09-28T17:50:52.569Z,46.50
2017-09-28T17:51:52.564Z,46.80
2017-09-28T17:52:52.538Z,45.00
2017-09-28T17:53:52.539Z,42.90
2017-09-28T17:54:52.514Z,42.40
2017-09-28T17:55:52.527Z,41.60
2017-09-28T17:56:52.509Z,41.20
2017-09-28T17:57:52.496Z,40.60
2017-09-28T17:58:52.486Z,40.40
2017-09-28T17:59:52.474Z,40.20
2017-09-28T18:00:52.449Z,40.10
2017-09-28T18:01:53.144Z,39.90
2017-09-28T18:02:52.446Z,40.00
2017-09-28T18:03:52.441Z,39.80
2017-09-28T18:04:52.417Z,39.90
2017-09-28T18:05:52.403Z,39.30
2017-09-28T18:06:52.381Z,39.40
2017-09-28T18:07:52.395Z,39.30
2017-09-28T18:08:52.382Z,39.60
2017-09-28T18:09:52.378Z,39.40
2017-09-28T18:10:52.364Z,39.90
2017-09-28T18:11:52.348Z,39.40
2017-09-28T18:12:52.349Z,39.60
2017-09-28T18:13:52.337Z,39.10
2017-09-28T18:14:52.319Z,39.70
2017-09-28T18:15:52.313Z,40.00
2017-09-28T18:16:52.292Z,40.20
2017-09-28T18:17:52.298Z,40.30
2017-09-28T18:18:52.265Z,40.70
2017-09-28T18:19:52.272Z,40.70
2017-09-28T18:20:52.269Z,41.10
2017-09-28T18:21:52.256Z,40.50
2017-09-28T18:22:52.231Z,41.00
2017-09-28T18:23:52.233Z,40.60
2017-09-28T18:24:52.211Z,40.50
2017-09-28T18:25:52.209Z,40.20
2017-09-28T18:26:52.186Z,40.10
2017-09-28T18:27:52.188Z,40.30
2017-09-28T18:28:52.164Z,41.60
2017-09-28T18:29:52.145Z,40.20
2017-09-28T18:30:52.145Z,40.20
2017-09-28T18:31:52.132Z,40.30
2017-09-28T18:32:52.121Z,39.90
2017-09-28T18:33:52.122Z,40.40
2017-09-28T18:34:52.084Z,40.40
2017-09-28T18:35:52.090Z,39.80
2017-09-28T18:36:52.083Z,40.30
2017-09-28T18:37:52.080Z,40.30
2017-09-28T18:38:52.080Z,40.40
2017-09-28T18:39:55.779Z,40.70
2017-09-28T18:40:52.047Z,40.80
2017-09-28T18:41:52.029Z,39.80
2017-09-28T18:42:52.033Z,40.00
2017-09-28T18:43:52.018Z,40.20
2017-09-28T18:44:51.998Z,40.10